Time;durP1;ratioP1;P1;durP2;ratioP2;P2;SDS_P1;SDS_P2;PMS_P1;PMS_P2;Temp;Humidity;BMP_temperature;BMP_pressure;BME280_temperature;BME280_humidity;BME280_pressure;Samples;Min_cycle;Max_cycle;Signal;HPM_P1;HPM_P2
2022/05/19 00:01:06;;;;;;;28.05;16.25;;;12.50;99.90;;;;;;5054379;28;20124;-86
2022/05/19 00:03:35;;;;;;;24.10;16.00;;;12.50;99.90;;;;;;5053334;28;20045;-86
2022/05/19 00:06:02;;;;;;;24.95;16.17;;;12.50;99.90;;;;;;5053266;28;20053;-86
2022/05/19 00:08:28;;;;;;;31.73;17.50;;;12.50;99.90;;;;;;5054063;28;20057;-86
2022/05/19 00:10:55;;;;;;;37.28;21.20;;;12.50;99.90;;;;;;5052824;28;20388;-86
2022/05/19 00:13:22;;;;;;;31.27;19.90;;;12.60;99.90;;;;;;5054115;28;20044;-86
2022/05/19 00:15:48;;;;;;;31.48;19.10;;;12.60;99.90;;;;;;5053859;28;20075;-86
2022/05/19 00:18:14;;;;;;;27.75;18.38;;;12.60;99.90;;;;;;5035608;28;20575;-86
2022/05/19 00:20:40;;;;;;;29.67;18.13;;;12.60;99.90;;;;;;5036092;28;20045;-86
2022/05/19 00:23:06;;;;;;;27.85;18.00;;;12.60;99.90;;;;;;5036163;28;20392;-86
2022/05/19 00:25:32;;;;;;;38.80;22.02;;;12.60;99.90;;;;;;5036202;28;20040;-86
2022/05/19 00:27:57;;;;;;;38.08;21.75;;;12.60;99.90;;;;;;5053841;28;20047;-86
2022/05/19 00:30:23;;;;;;;40.47;22.17;;;12.70;99.90;;;;;;5054090;28;20119;-87
2022/05/19 00:32:49;;;;;;;35.05;21.08;;;12.70;99.90;;;;;;5036078;28;20079;-85
2022/05/19 00:35:16;;;;;;;29.58;19.95;;;12.70;99.90;;;;;;5036227;28;20109;-85
2022/05/19 00:37:41;;;;;;;34.08;19.00;;;12.70;99.90;;;;;;5053801;28;20044;-85
2022/05/19 00:40:08;;;;;;;30.48;17.45;;;12.70;99.90;;;;;;5053713;28;20051;-86
2022/05/19 00:42:43;;;;;;;28.75;19.42;;;12.70;99.90;;;;;;5035833;28;20045;-85
2022/05/19 00:45:11;;;;;;;35.33;21.73;;;12.70;99.90;;;;;;5035849;28;20087;-85
2022/05/19 00:48:01;;;;;;;32.67;20.95;;;12.70;99.90;;;;;;5035650;28;20128;-86
2022/05/19 00:50:58;;;;;;;32.70;20.63;;;12.70;99.90;;;;;;5035951;28;20131;-88
2022/05/19 00:53:40;;;;;;;35.67;20.23;;;12.70;99.90;;;;;;5033098;28;20053;-85
2022/05/19 00:56:19;;;;;;;28.63;18.67;;;12.70;99.90;;;;;;5053523;28;20497;-86
2022/05/19 00:59:00;;;;;;;33.08;21.73;;;12.70;99.90;;;;;;5035661;28;20396;-87
2022/05/19 01:01:26;;;;;;;43.78;24.52;;;12.70;99.90;;;;;;5053520;28;20041;-86
2022/05/19 01:03:57;;;;;;;44.97;28.65;;;12.70;99.90;;;;;;5053493;28;20124;-87
2022/05/19 01:06:24;;;;;;;49.85;28.85;;;12.80;99.90;;;;;;5035836;28;20053;-87
2022/05/19 01:09:00;;;;;;;40.72;26.02;;;12.90;99.90;;;;;;5053150;28;20047;-87
2022/05/19 01:11:26;;;;;;;45.35;28.05;;;12.90;99.90;;;;;;5053211;28;20534;-87
2022/05/19 01:13:52;;;;;;;42.20;25.13;;;12.90;99.90;;;;;;5035440;28;20053;-86
2022/05/19 01:16:19;;;;;;;50.47;28.10;;;12.90;99.90;;;;;;5052887;28;20051;-87
2022/05/19 01:18:45;;;;;;;50.10;30.20;;;13.00;99.90;;;;;;5035490;28;20057;-86
2022/05/19 01:21:14;;;;;;;51.55;32.70;;;13.00;99.90;;;;;;5035427;28;20049;-87
2022/05/19 01:23:49;;;;;;;48.42;32.78;;;13.10;99.90;;;;;;5035209;28;20059;-87
2022/05/19 01:26:36;;;;;;;56.22;34.08;;;13.10;99.90;;;;;;5035523;28;20123;-86
2022/05/19 01:29:02;;;;;;;67.22;39.28;;;13.20;99.90;;;;;;5035874;28;20049;-87
2022/05/19 01:31:32;;;;;;;48.85;34.72;;;13.20;99.90;;;;;;5039478;28;20056;-87
2022/05/19 01:33:59;;;;;;;56.60;39.13;;;13.30;99.90;;;;;;5039298;28;20049;-86
2022/05/19 01:36:25;;;;;;;76.20;43.17;;;13.40;99.90;;;;;;5039088;28;20056;-86
2022/05/19 01:39:03;;;;;;;66.07;43.70;;;13.40;99.90;;;;;;5038960;28;20040;-86
2022/05/19 01:41:31;;;;;;;71.25;47.10;;;13.50;99.90;;;;;;5057083;28;20128;-86
2022/05/19 01:44:00;;;;;;;79.70;48.05;;;13.60;99.90;;;;;;5039305;28;20044;-87
2022/05/19 01:46:37;;;;;;;86.50;51.75;;;13.60;99.90;;;;;;5039106;28;20056;-86
2022/05/19 01:49:18;;;;;;;84.22;52.88;;;13.70;99.90;;;;;;5056834;28;20033;-86
2022/05/19 01:52:10;;;;;;;85.63;53.85;;;13.70;99.90;;;;;;5038899;28;20056;-86
2022/05/19 01:54:43;;;;;;;94.68;60.15;;;13.70;99.90;;;;;;5038957;28;20060;-86
2022/05/19 01:57:31;;;;;;;95.93;59.58;;;13.80;99.90;;;;;;5039000;28;20087;-87
2022/05/19 02:00:12;;;;;;;112.22;67.32;;;13.80;99.90;;;;;;5038636;28;20132;-87
2022/05/19 02:02:55;;;;;;;98.18;61.92;;;14.00;99.90;;;;;;5038662;28;20045;-87
2022/05/19 02:05:49;;;;;;;113.15;66.32;;;14.00;99.90;;;;;;5038767;28;20499;-87
2022/05/19 02:08:27;;;;;;;122.97;76.00;;;14.10;99.90;;;;;;5056518;28;20045;-86
2022/05/19 02:10:55;;;;;;;118.82;71.03;;;14.30;99.90;;;;;;5038331;28;20057;-86
2022/05/19 02:13:22;;;;;;;121.35;68.38;;;14.20;99.90;;;;;;5056324;28;20041;-86
2022/05/19 02:15:51;;;;;;;109.03;65.70;;;14.20;99.90;;;;;;5056083;28;20097;-86
2022/05/19 02:18:20;;;;;;;118.68;69.00;;;14.20;99.90;;;;;;5056286;28;20127;-86
2022/05/19 02:20:47;;;;;;;133.07;74.55;;;14.30;99.90;;;;;;5056454;28;20436;-89
2022/05/19 02:23:15;;;;;;;122.45;71.78;;;14.30;99.90;;;;;;5056150;28;20412;-86
2022/05/19 02:25:43;;;;;;;125.75;68.18;;;14.30;99.90;;;;;;5056065;28;20674;-90
2022/05/19 02:28:15;;;;;;;116.90;69.20;;;14.30;99.90;;;;;;5038775;28;20050;-87
2022/05/19 02:30:42;;;;;;;117.20;68.93;;;14.30;99.90;;;;;;5055982;28;20127;-87
2022/05/19 02:33:11;;;;;;;111.60;68.90;;;14.40;99.90;;;;;;5038343;28;20473;-85
2022/05/19 02:35:36;;;;;;;108.68;64.10;;;14.40;99.90;;;;;;5038353;28;20144;-85
2022/05/19 02:38:03;;;;;;;115.20;66.03;;;14.40;99.90;;;;;;5055843;28;20453;-85
2022/05/19 02:40:31;;;;;;;115.00;67.95;;;14.40;99.90;;;;;;5055366;28;20045;-85
2022/05/19 02:42:57;;;;;;;122.45;67.57;;;14.40;99.90;;;;;;5055894;28;20048;-84
2022/05/19 02:45:23;;;;;;;111.40;66.63;;;14.40;99.90;;;;;;5055923;28;20033;-86
2022/05/19 02:47:50;;;;;;;114.68;63.97;;;14.40;99.90;;;;;;5038037;28;20473;-86
2022/05/19 02:50:17;;;;;;;106.88;62.63;;;14.40;99.90;;;;;;5038014;28;20484;-86
2022/05/19 02:52:43;;;;;;;108.75;62.80;;;14.30;99.90;;;;;;5037664;28;20051;-86
2022/05/19 02:55:10;;;;;;;112.35;64.35;;;14.30;99.90;;;;;;5037853;28;20041;-87
2022/05/19 02:57:36;;;;;;;112.38;63.65;;;14.30;99.90;;;;;;5037905;28;20128;-91
2022/05/19 03:00:05;;;;;;;111.60;63.97;;;14.40;99.90;;;;;;5057602;28;20100;-85
2022/05/19 03:02:30;;;;;;;113.53;64.18;;;14.30;99.90;;;;;;5055546;28;20112;-86
2022/05/19 03:04:57;;;;;;;112.70;66.10;;;14.30;99.90;;;;;;5037620;28;20456;-87
2022/05/19 03:07:23;;;;;;;120.45;69.18;;;14.30;99.90;;;;;;5037547;28;20087;-86
2022/05/19 03:09:48;;;;;;;132.30;74.57;;;14.30;99.90;;;;;;5055326;28;20041;-86
2022/05/19 03:12:14;;;;;;;128.52;74.10;;;14.40;99.90;;;;;;5055316;28;20083;-89
2022/05/19 03:14:40;;;;;;;124.70;75.05;;;14.40;99.90;;;;;;5037356;28;20129;-87
2022/05/19 03:17:10;;;;;;;137.27;79.97;;;14.40;99.90;;;;;;5051957;28;20045;-86
2022/05/19 03:19:37;;;;;;;143.80;79.72;;;14.40;99.90;;;;;;5055115;28;20056;-86
2022/05/19 03:22:04;;;;;;;144.65;80.57;;;14.30;99.90;;;;;;5053827;28;20049;-87
2022/05/19 03:24:30;;;;;;;139.02;80.30;;;14.40;99.90;;;;;;5053983;28;20131;-86
2022/05/19 03:26:56;;;;;;;142.75;83.68;;;14.40;99.90;;;;;;5053981;28;20437;-86
2022/05/19 03:29:22;;;;;;;150.60;85.05;;;14.40;99.90;;;;;;5055021;28;20059;-86
2022/05/19 03:31:47;;;;;;;145.52;84.20;;;14.40;99.90;;;;;;5054940;28;20041;-86
2022/05/19 03:34:17;;;;;;;158.80;90.53;;;14.40;99.90;;;;;;5053909;28;20053;-86
2022/05/19 03:36:46;;;;;;;153.52;88.93;;;14.40;99.90;;;;;;5053817;28;20045;-86
2022/05/19 03:39:12;;;;;;;159.15;91.25;;;14.40;99.90;;;;;;5053245;28;20053;-86
2022/05/19 03:41:38;;;;;;;165.70;89.57;;;14.40;99.90;;;;;;5053138;28;20076;-86
2022/05/19 03:44:04;;;;;;;148.32;86.65;;;14.40;99.90;;;;;;5054602;28;20136;-86
2022/05/19 03:46:29;;;;;;;159.75;94.85;;;14.50;99.90;;;;;;5054592;28;20049;-86
2022/05/19 03:48:55;;;;;;;157.88;91.15;;;14.50;99.90;;;;;;5054018;28;20254;-90
2022/05/19 03:51:27;;;;;;;158.35;92.07;;;14.50;99.90;;;;;;5052050;28;20408;-87
2022/05/19 03:53:53;;;;;;;173.35;97.55;;;14.50;99.90;;;;;;5052505;28;20127;-88
2022/05/19 03:56:20;;;;;;;162.32;94.97;;;14.60;99.90;;;;;;5053235;28;20052;-87
2022/05/19 03:58:46;;;;;;;164.18;92.97;;;14.60;99.90;;;;;;5054272;28;20045;-87
2022/05/19 04:01:12;;;;;;;165.95;95.20;;;14.60;99.90;;;;;;5054161;28;20458;-87
2022/05/19 04:03:38;;;;;;;163.65;91.18;;;14.60;99.90;;;;;;5054066;28;20048;-88
2022/05/19 04:06:04;;;;;;;175.90;95.60;;;14.60;99.90;;;;;;5052868;28;20392;-88
2022/05/19 04:08:30;;;;;;;197.38;101.63;;;14.70;99.90;;;;;;5052769;28;20484;-92
2022/05/19 04:10:57;;;;;;;223.75;107.75;;;14.80;99.90;;;;;;5055089;28;20044;-85
2022/05/19 04:13:23;;;;;;;189.88;96.05;;;14.80;99.90;;;;;;5053402;28;20068;-93
2022/05/19 04:15:48;;;;;;;142.45;73.13;;;14.80;99.90;;;;;;5054563;28;20499;-90
2022/05/19 04:18:14;;;;;;;155.95;80.72;;;14.90;99.90;;;;;;5052527;28;20060;-91
2022/05/19 04:20:41;;;;;;;125.53;69.50;;;14.90;99.90;;;;;;5053611;28;20037;-89
2022/05/19 04:23:06;;;;;;;133.63;72.72;;;15.00;99.90;;;;;;5053716;28;20520;-89
2022/05/19 04:25:32;;;;;;;152.75;81.05;;;15.00;99.90;;;;;;5052763;28;20041;-88
2022/05/19 04:27:58;;;;;;;169.35;86.40;;;15.00;99.90;;;;;;5054210;28;20396;-88
2022/05/19 04:30:24;;;;;;;178.05;92.05;;;15.00;99.90;;;;;;5053641;28;20518;-88
2022/05/19 04:32:50;;;;;;;180.38;93.70;;;15.00;99.90;;;;;;5053867;28;20492;-85
2022/05/19 04:35:16;;;;;;;186.30;93.85;;;15.10;99.90;;;;;;5053786;28;20123;-85
2022/05/19 04:37:42;;;;;;;185.13;98.28;;;15.10;99.90;;;;;;5053717;28;20045;-85
2022/05/19 04:40:09;;;;;;;181.98;98.07;;;15.10;99.90;;;;;;5053605;28;20059;-86
2022/05/19 04:42:35;;;;;;;183.77;98.15;;;15.10;99.90;;;;;;5053496;28;20463;-88
2022/05/19 04:45:00;;;;;;;176.98;94.68;;;15.10;99.90;;;;;;5052229;28;20124;-88
2022/05/19 04:47:26;;;;;;;180.07;93.88;;;15.10;99.90;;;;;;5052243;28;20052;-88
2022/05/19 04:49:52;;;;;;;175.00;92.47;;;15.10;99.90;;;;;;5052373;28;20041;-90
2022/05/19 04:52:20;;;;;;;164.50;87.82;;;15.20;99.90;;;;;;5053625;28;20132;-88
2022/05/19 04:54:46;;;;;;;163.07;87.32;;;15.20;99.90;;;;;;5052077;28;20037;-89
2022/05/19 04:57:11;;;;;;;169.27;89.55;;;15.30;99.90;;;;;;5054329;28;20103;-89
2022/05/19 04:59:38;;;;;;;175.35;94.95;;;15.30;99.90;;;;;;5051958;28;20045;-89
2022/05/19 05:02:04;;;;;;;189.40;98.82;;;15.30;99.90;;;;;;5052167;28;20057;-89
2022/05/19 05:04:30;;;;;;;190.02;97.53;;;15.40;99.90;;;;;;5055036;28;20045;-88
2022/05/19 05:06:56;;;;;;;189.05;94.90;;;15.30;99.90;;;;;;5056483;28;20047;-89
2022/05/19 05:09:22;;;;;;;201.55;101.13;;;15.40;99.90;;;;;;5056130;28;20049;-90
2022/05/19 05:11:48;;;;;;;199.82;102.55;;;15.40;99.90;;;;;;5056379;28;20049;-88
2022/05/19 05:14:16;;;;;;;208.13;101.40;;;15.40;99.90;;;;;;5056305;28;20440;-89
2022/05/19 05:16:46;;;;;;;217.00;104.90;;;15.40;99.90;;;;;;5055970;28;20048;-89
2022/05/19 05:19:12;;;;;;;223.82;109.55;;;15.50;99.90;;;;;;5056061;28;20386;-88
2022/05/19 05:21:37;;;;;;;209.65;106.05;;;15.50;99.90;;;;;;5056187;28;20515;-89
2022/05/19 05:24:03;;;;;;;230.93;110.80;;;15.60;99.90;;;;;;5056092;28;20447;-89
2022/05/19 05:26:29;;;;;;;226.55;113.93;;;15.50;99.90;;;;;;5056000;28;20527;-91
2022/05/19 05:28:54;;;;;;;224.70;107.75;;;15.60;99.90;;;;;;5055691;28;20048;-90
2022/05/19 05:31:20;;;;;;;237.05;112.82;;;15.60;99.90;;;;;;5055724;28;20048;-91
2022/05/19 05:33:46;;;;;;;229.27;110.30;;;15.60;99.90;;;;;;5055957;28;20051;-91
2022/05/19 05:36:11;;;;;;;221.45;111.15;;;15.60;99.90;;;;;;5056885;28;20072;-91
2022/05/19 05:38:37;;;;;;;219.35;107.18;;;15.60;99.90;;;;;;5055510;28;20048;-89
2022/05/19 05:41:03;;;;;;;218.02;109.50;;;15.60;99.90;;;;;;5056884;28;20100;-89
2022/05/19 05:43:30;;;;;;;206.52;106.63;;;15.70;99.90;;;;;;5056899;28;20041;-89
2022/05/19 05:46:05;;;;;;;213.35;108.57;;;15.70;99.90;;;;;;5056673;28;20416;-89
2022/05/19 05:48:31;;;;;;;206.98;105.47;;;15.80;99.90;;;;;;5056340;28;20447;-88
2022/05/19 05:50:57;;;;;;;218.82;108.95;;;15.80;99.90;;;;;;5057099;28;20044;-89
2022/05/19 05:53:22;;;;;;;199.93;105.03;;;15.80;99.90;;;;;;5055441;28;20048;-89
2022/05/19 05:55:48;;;;;;;187.77;100.72;;;15.90;99.90;;;;;;5055246;28;20048;-89
2022/05/19 05:58:13;;;;;;;173.75;93.55;;;15.90;99.90;;;;;;5055964;28;20484;-90
2022/05/19 06:00:41;;;;;;;168.65;92.10;;;15.90;99.90;;;;;;5056594;28;20045;-90
2022/05/19 06:03:07;;;;;;;169.13;91.80;;;15.90;99.90;;;;;;5056857;28;20044;-91
2022/05/19 06:05:32;;;;;;;177.23;97.75;;;15.90;99.90;;;;;;5055963;28;20053;-91
2022/05/19 06:07:58;;;;;;;168.32;92.70;;;15.90;99.90;;;;;;5056354;28;20048;-87
2022/05/19 06:10:23;;;;;;;162.45;89.60;;;15.90;99.90;;;;;;5056443;28;20118;-87
2022/05/19 06:12:49;;;;;;;161.43;90.88;;;15.90;99.90;;;;;;5055163;28;20051;-87
2022/05/19 06:15:15;;;;;;;154.50;90.18;;;16.00;99.90;;;;;;5054075;28;20417;-87
2022/05/19 06:17:41;;;;;;;157.32;89.22;;;16.00;99.90;;;;;;5056268;28;20076;-90
2022/05/19 06:20:15;;;;;;;152.10;87.15;;;16.00;99.90;;;;;;5056209;28;20056;-90
2022/05/19 06:22:43;;;;;;;153.75;88.82;;;16.00;99.90;;;;;;5055897;28;20506;-90
2022/05/19 06:25:10;;;;;;;151.20;87.45;;;16.00;99.90;;;;;;5057112;28;20405;-90
2022/05/19 06:27:36;;;;;;;125.63;72.00;;;16.10;99.90;;;;;;5056404;28;20071;-89
2022/05/19 06:30:04;;;;;;;120.65;58.42;;;16.10;99.90;;;;;;5037896;28;20134;-88
2022/05/19 06:32:29;;;;;;;103.05;40.90;;;16.20;99.90;;;;;;5021472;28;20492;-90
2022/05/19 06:34:55;;;;;;;88.57;25.83;;;16.30;99.90;;;;;;5038320;28;20049;-91
2022/05/19 06:37:21;;;;;;;78.60;22.35;;;16.30;99.90;;;;;;5056021;28;20148;-88
2022/05/19 06:39:46;;;;;;;87.65;23.27;;;16.30;99.90;;;;;;5055713;28;20049;-92
2022/05/19 06:42:14;;;;;;;73.38;20.08;;;16.30;99.90;;;;;;5038195;28;20484;-92
2022/05/19 06:44:42;;;;;;;69.13;21.38;;;16.20;99.90;;;;;;5038113;28;20451;-90
2022/05/19 06:47:13;;;;;;;59.80;19.38;;;16.20;99.90;;;;;;5038152;28;20041;-87
2022/05/19 06:49:44;;;;;;;75.03;21.30;;;16.30;99.90;;;;;;5037950;28;20475;-86
2022/05/19 06:52:15;;;;;;;68.55;24.17;;;16.40;99.90;;;;;;5037868;28;20128;-82
2022/05/19 06:54:49;;;;;;;66.10;23.23;;;16.30;99.90;;;;;;5037908;28;20053;-88
2022/05/19 06:57:16;;;;;;;82.30;28.42;;;16.30;99.90;;;;;;5054767;28;20175;-88
2022/05/19 06:59:42;;;;;;;76.00;32.83;;;16.30;99.90;;;;;;5036913;28;20458;-91
2022/05/19 07:02:09;;;;;;;85.03;33.03;;;16.30;99.90;;;;;;5055102;28;20052;-89
2022/05/19 07:04:36;;;;;;;91.32;33.78;;;16.20;99.90;;;;;;5037045;28;20110;-89
2022/05/19 07:07:04;;;;;;;90.88;33.53;;;16.20;99.90;;;;;;5037115;28;20057;-89
2022/05/19 07:09:31;;;;;;;77.38;30.83;;;16.10;99.90;;;;;;5037705;28;20049;-85
2022/05/19 07:11:56;;;;;;;94.28;34.55;;;16.10;99.90;;;;;;5037568;28;20056;-88
2022/05/19 07:14:22;;;;;;;80.57;32.15;;;16.20;99.90;;;;;;5037173;28;20037;-89
2022/05/19 07:16:49;;;;;;;93.05;35.17;;;16.20;99.90;;;;;;5036876;28;20436;-87
2022/05/19 07:22:00;;;;;;;79.30;30.48;;;16.30;99.90;;;;;;5055128;28;20052;-87
2022/05/19 07:24:26;;;;;;;76.15;30.73;;;16.20;99.90;;;;;;5054623;28;20045;-86
2022/05/19 07:26:54;;;;;;;69.53;31.60;;;16.30;99.90;;;;;;5036737;28;20076;-86
2022/05/19 07:29:21;;;;;;;77.63;33.92;;;16.30;99.90;;;;;;5036691;28;20565;-85
2022/05/19 07:31:49;;;;;;;68.05;31.52;;;16.20;99.90;;;;;;5054742;28;20045;-86
2022/05/19 07:34:17;;;;;;;72.50;32.33;;;16.20;99.90;;;;;;5036840;28;20052;-87
2022/05/19 07:36:43;;;;;;;69.03;31.25;;;16.30;99.90;;;;;;5037126;28;20084;-88
2022/05/19 07:39:09;;;;;;;76.10;34.67;;;16.20;99.90;;;;;;5036559;28;20519;-89
2022/05/19 07:41:35;;;;;;;80.22;35.65;;;16.20;99.90;;;;;;5054416;28;20122;-88
2022/05/19 07:44:01;;;;;;;77.97;36.03;;;16.30;99.90;;;;;;5036765;28;20132;-87
2022/05/19 07:46:30;;;;;;;81.65;38.47;;;16.30;99.90;;;;;;5036546;28;20053;-87
2022/05/19 07:48:56;;;;;;;81.70;39.13;;;16.30;99.90;;;;;;5036367;28;20554;-86
2022/05/19 07:51:31;;;;;;;80.82;42.22;;;16.30;99.90;;;;;;5036479;28;20052;-86
2022/05/19 07:53:57;;;;;;;76.47;39.72;;;16.30;99.90;;;;;;5054208;28;20048;-87
2022/05/19 07:56:23;;;;;;;80.85;41.20;;;16.40;99.90;;;;;;5035653;28;20037;-88
2022/05/19 07:58:50;;;;;;;71.32;39.53;;;16.40;99.90;;;;;;5036524;28;20037;-89
2022/05/19 08:01:16;;;;;;;74.65;40.08;;;16.40;99.90;;;;;;5035871;28;20053;-90
2022/05/19 08:03:43;;;;;;;66.05;38.83;;;16.40;99.90;;;;;;5036019;28;20049;-89
2022/05/19 08:06:10;;;;;;;58.47;35.58;;;16.40;99.90;;;;;;5053804;28;20049;-88
2022/05/19 08:08:39;;;;;;;64.05;39.60;;;16.40;99.90;;;;;;5035923;28;20048;-88
2022/05/19 08:11:07;;;;;;;81.03;39.90;;;16.40;99.90;;;;;;5053669;28;20451;-89
2022/05/19 08:16:17;;;;;;;67.38;35.60;;;16.50;99.90;;;;;;5035634;28;20060;-88
2022/05/19 08:18:42;;;;;;;66.78;33.47;;;16.60;99.90;;;;;;5029673;28;20049;-88
2022/05/19 08:21:11;;;;;;;67.03;34.40;;;16.50;99.90;;;;;;5021713;28;20481;-88
2022/05/19 08:23:43;;;;;;;65.45;33.55;;;16.50;99.90;;;;;;5033710;28;20045;-87
2022/05/19 08:26:09;;;;;;;64.40;32.78;;;16.50;99.90;;;;;;5019712;28;20048;-87
2022/05/19 08:28:36;;;;;;;69.38;34.35;;;16.60;99.90;;;;;;5031612;28;20495;-87
2022/05/19 08:31:08;;;;;;;65.00;33.90;;;16.60;99.90;;;;;;5053566;28;20127;-88
2022/05/19 08:33:35;;;;;;;69.18;34.50;;;16.70;99.90;;;;;;5053487;28;20484;-88
2022/05/19 08:36:02;;;;;;;81.78;34.72;;;16.70;99.90;;;;;;5052939;28;20036;-89
2022/05/19 08:38:28;;;;;;;68.05;35.35;;;16.80;99.90;;;;;;5053070;28;20055;-87
2022/05/19 08:41:26;;;;;;;73.10;33.45;;;16.90;99.90;;;;;;5035395;28;20476;-88
2022/05/19 08:43:58;;;;;;;65.38;31.45;;;17.00;99.90;;;;;;4992485;28;20060;-88
2022/05/19 08:46:31;;;;;;;56.20;30.27;;;17.00;99.90;;;;;;5035469;28;20497;-88
2022/05/19 08:49:02;;;;;;;51.53;31.70;;;17.10;99.90;;;;;;5053145;28;20518;-88
2022/05/19 08:51:36;;;;;;;52.78;31.15;;;17.10;99.90;;;;;;5032128;28;20042;-89
2022/05/19 08:54:08;;;;;;;59.25;32.78;;;17.20;99.90;;;;;;5017178;28;20405;-88
2022/05/19 08:56:47;;;;;;;56.63;33.50;;;17.30;99.90;;;;;;5034537;28;20037;-88
2022/05/19 08:59:18;;;;;;;61.28;33.15;;;17.40;99.90;;;;;;5026588;28;20053;-89
2022/05/19 09:01:53;;;;;;;50.55;34.33;;;17.50;99.90;;;;;;5035294;28;20044;-90
2022/05/19 09:04:36;;;;;;;57.35;34.30;;;17.60;99.90;;;;;;5035333;28;20081;-88
2022/05/19 09:10:20;;;;;;;62.97;33.28;;;17.80;99.90;;;;;;5035047;28;20044;-89
2022/05/19 09:12:52;;;;;;;58.50;35.85;;;17.90;99.90;;;;;;5035158;28;20056;-89
2022/05/19 09:15:18;;;;;;;66.47;37.97;;;18.10;99.90;;;;;;5034872;28;20088;-88
2022/05/19 09:17:46;;;;;;;60.30;36.80;;;18.20;99.90;;;;;;5035248;28;20084;-89
2022/05/19 09:20:31;;;;;;;61.67;38.92;;;18.30;99.90;;;;;;5034982;28;20132;-89
2022/05/19 09:23:03;;;;;;;55.78;36.25;;;18.40;99.90;;;;;;5035401;28;20041;-90
2022/05/19 09:25:29;;;;;;;65.38;37.72;;;18.40;99.90;;;;;;5034969;28;20049;-90
2022/05/19 09:27:58;;;;;;;59.97;37.58;;;18.40;99.90;;;;;;5052089;28;20051;-91
2022/05/19 09:30:52;;;;;;;65.18;37.15;;;18.50;99.90;;;;;;5035196;28;20052;-91
2022/05/19 09:33:22;;;;;;;61.00;39.08;;;18.50;99.90;;;;;;5044937;28;20067;-91
2022/05/19 09:35:53;;;;;;;69.35;39.92;;;18.50;99.90;;;;;;5034786;28;20044;-91
2022/05/19 09:38:37;;;;;;;59.03;40.67;;;18.70;99.90;;;;;;5034990;28;20488;-90
2022/05/19 09:41:21;;;;;;;65.07;39.58;;;18.80;99.90;;;;;;5051898;28;20091;-88
2022/05/19 09:43:53;;;;;;;59.35;39.60;;;19.00;99.90;;;;;;5033207;28;20045;-89
2022/05/19 09:46:19;;;;;;;58.35;39.97;;;19.00;99.90;;;;;;5052981;28;20056;-88
2022/05/19 09:48:51;;;;;;;58.78;39.80;;;19.10;99.90;;;;;;5034806;28;20130;-88
2022/05/19 09:51:19;;;;;;;65.68;40.92;;;19.20;99.90;;;;;;5036880;28;20544;-87
2022/05/19 09:53:53;;;;;;;59.08;38.83;;;19.30;99.90;;;;;;5038709;28;20048;-88
2022/05/19 09:56:21;;;;;;;60.65;40.55;;;19.30;99.90;;;;;;5056755;28;20045;-93
2022/05/19 09:58:50;;;;;;;58.50;40.33;;;19.50;99.90;;;;;;5038797;28;20045;-93
2022/05/19 10:01:27;;;;;;;49.47;36.58;;;19.60;99.90;;;;;;5038529;28;20051;-87
2022/05/19 10:03:58;;;;;;;53.88;37.20;;;19.60;99.90;;;;;;5038344;28;20057;-93
2022/05/19 10:06:46;;;;;;;64.38;39.78;;;19.60;99.90;;;;;;5045025;28;20049;-92
2022/05/19 10:09:17;;;;;;;55.10;40.47;;;19.80;99.90;;;;;;5056938;28;20183;-88
2022/05/19 10:11:54;;;;;;;60.35;37.72;;;19.90;99.90;;;;;;5056449;28;20513;-86
2022/05/19 10:14:30;;;;;;;53.42;39.00;;;19.90;99.90;;;;;;5038125;28;20378;-89
2022/05/19 10:16:59;;;;;;;60.83;37.08;;;20.00;99.90;;;;;;5037904;28;20049;-87
2022/05/19 10:19:28;;;;;;;50.45;35.55;;;19.90;99.90;;;;;;5037909;28;20041;-90
2022/05/19 10:22:04;;;;;;;62.33;36.33;;;19.90;99.90;;;;;;5038291;28;20041;-87
2022/05/19 10:24:51;;;;;;;56.88;37.97;;;20.00;99.90;;;;;;5038263;28;20048;-87
2022/05/19 10:32:57;;;;;;;53.20;35.15;;;20.40;99.90;;;;;;5055806;28;20089;-90
2022/05/19 10:35:40;;;;;;;62.30;38.85;;;20.40;99.90;;;;;;5037643;28;20045;-86
2022/05/19 10:38:52;;;;;;;58.65;40.05;;;20.50;99.90;;;;;;5038086;28;20091;-82
2022/05/19 10:41:45;;;;;;;55.15;38.00;;;20.80;99.90;;;;;;5037785;28;20099;-90
2022/05/19 10:44:22;;;;;;;52.33;35.83;;;21.10;99.90;;;;;;5037198;28;20187;-89
2022/05/19 10:47:13;;;;;;;51.17;34.22;;;21.40;99.90;;;;;;5037786;28;20053;-85
2022/05/19 10:50:15;;;;;;;51.78;36.78;;;21.60;99.90;;;;;;5038167;28;20049;-90
2022/05/19 10:52:59;;;;;;;57.22;37.67;;;21.70;99.90;;;;;;5037801;28;20052;-88
2022/05/19 10:55:46;;;;;;;65.35;38.65;;;21.90;99.90;;;;;;5037830;28;20106;-90
2022/05/19 10:58:40;;;;;;;55.95;37.80;;;22.00;99.90;;;;;;5037712;28;20060;-89
2022/05/19 11:01:33;;;;;;;54.17;39.88;;;22.10;99.90;;;;;;5037120;28;20053;-90
2022/05/19 11:04:41;;;;;;;58.30;39.95;;;22.20;99.90;;;;;;5038310;28;20049;-88
2022/05/19 11:07:41;;;;;;;55.92;40.55;;;22.20;99.90;;;;;;5038150;28;20053;-87
2022/05/19 11:10:19;;;;;;;57.70;39.92;;;22.40;99.90;;;;;;5038139;28;20057;-87
2022/05/19 11:13:00;;;;;;;56.92;36.78;;;22.50;99.90;;;;;;5037232;28;20107;-91
2022/05/19 11:15:42;;;;;;;48.67;36.33;;;22.40;99.90;;;;;;5037742;28;20497;-89
2022/05/19 11:18:23;;;;;;;54.10;36.92;;;22.60;99.90;;;;;;5055782;28;20045;-88
2022/05/19 11:21:03;;;;;;;47.63;34.30;;;23.00;99.90;;;;;;5037509;28;20396;-89
2022/05/19 11:23:59;;;;;;;50.10;34.28;;;23.10;99.90;;;;;;5037716;28;20052;-92
2022/05/19 11:26:37;;;;;;;45.30;33.60;;;23.10;99.90;;;;;;5038267;28;20056;-89
2022/05/19 11:29:06;;;;;;;43.70;33.47;;;23.30;99.90;;;;;;5037005;28;20041;-90
2022/05/19 11:31:56;;;;;;;44.85;32.65;;;23.40;99.90;;;;;;5020316;28;20473;-90
2022/05/19 11:34:43;;;;;;;42.55;30.23;;;23.70;99.90;;;;;;5036288;28;20132;-90
2022/05/19 11:37:42;;;;;;;41.92;29.00;;;23.80;99.90;;;;;;5036405;28;20037;-90
2022/05/19 11:40:42;;;;;;;39.38;27.63;;;23.90;99.90;;;;;;5017078;28;20049;-91
2022/05/19 11:43:32;;;;;;;41.58;29.20;;;24.00;99.90;;;;;;5016467;28;20055;-93
2022/05/19 11:46:09;;;;;;;36.28;29.00;;;23.80;99.90;;;;;;5034830;28;20124;-92
2022/05/19 11:55:15;;;;;;;40.58;32.10;;;23.20;99.90;;;;;;5017392;28;20060;-90
2022/05/19 11:58:20;;;;;;;40.42;31.65;;;23.00;99.90;;;;;;5016630;28;20083;-90
2022/05/19 12:01:02;;;;;;;43.85;30.63;;;22.70;99.90;;;;;;5016480;28;20049;-90
2022/05/19 12:03:44;;;;;;;45.30;31.10;;;22.50;99.90;;;;;;5016616;28;20041;-90
2022/05/19 12:06:10;;;;;;;40.63;29.65;;;22.40;99.90;;;;;;5016739;28;20107;-90
2022/05/19 12:08:56;;;;;;;49.53;34.00;;;22.30;99.90;;;;;;5016718;28;20045;-91
2022/05/19 12:11:41;;;;;;;59.20;37.05;;;22.30;99.90;;;;;;5016962;28;20580;-91
2022/05/19 12:14:21;;;;;;;63.13;39.22;;;22.20;99.90;;;;;;5016075;28;20045;-91
2022/05/19 12:17:09;;;;;;;73.82;43.50;;;21.70;99.90;;;;;;5016876;28;20397;-94
2022/05/19 12:19:41;;;;;;;69.30;41.92;;;21.60;99.90;;;;;;5053616;28;20048;-95
2022/05/19 12:22:31;;;;;;;57.22;40.45;;;21.40;99.90;;;;;;5037028;28;20084;-95
2022/05/19 12:25:00;;;;;;;65.22;43.13;;;21.30;99.90;;;;;;5038801;28;20059;-95
2022/05/19 12:27:51;;;;;;;62.97;41.85;;;21.20;99.90;;;;;;5040624;28;20094;-95
2022/05/19 12:33:32;;;;;;;81.50;55.80;;;20.90;99.90;;;;;;5046625;28;20056;-94
2022/05/19 12:36:11;;;;;;;91.68;61.05;;;20.70;99.90;;;;;;5045706;28;20084;-95
2022/05/19 12:38:45;;;;;;;92.18;65.30;;;20.60;99.90;;;;;;5050149;28;20060;-95
2022/05/19 12:41:37;;;;;;;98.03;68.50;;;20.50;99.90;;;;;;5061621;28;20032;-96
2022/05/19 12:44:44;;;;;;;100.13;68.70;;;20.30;99.90;;;;;;5040293;28;20048;-95
2022/05/19 12:47:15;;;;;;;103.63;71.13;;;20.20;99.90;;;;;;5042847;28;20049;-94
2022/05/19 12:50:01;;;;;;;112.25;74.88;;;20.10;99.90;;;;;;5034561;28;20083;-93
2022/05/19 12:52:54;;;;;;;109.78;73.47;;;20.00;99.90;;;;;;5055907;28;20040;-95
2022/05/19 12:55:23;;;;;;;115.40;73.35;;;20.00;99.90;;;;;;5044070;28;20056;-95
2022/05/19 12:57:51;;;;;;;112.63;71.45;;;19.80;99.90;;;;;;5042310;28;20382;-94
2022/05/19 13:00:21;;;;;;;107.38;69.40;;;19.70;99.90;;;;;;5038972;28;20099;-95
2022/05/19 13:02:50;;;;;;;115.40;69.55;;;19.70;99.90;;;;;;5039227;28;20045;-94
2022/05/19 13:05:28;;;;;;;105.85;68.70;;;19.70;99.90;;;;;;5036573;28;20583;-92
2022/05/19 13:08:11;;;;;;;109.30;65.60;;;19.70;99.90;;;;;;5024361;28;20037;-93
2022/05/19 13:10:43;;;;;;;110.38;54.38;;;19.70;99.90;;;;;;5057411;28;20400;-95